Time;durP1;ratioP1;P1;durP2;ratioP2;P2;SDS_P1;SDS_P2;PMS_P1;PMS_P2;Temp;Humidity;BMP_temperature;BMP_pressure;BME280_temperature;BME280_humidity;BME280_pressure;Samples;Min_cycle;Max_cycle;Signal;HPM_P1;HPM_P2
2021/06/03 06:34:08;;;;;;;5.82;2.65;;;;;;;;;;5127604;27;20388;-67
2021/06/03 06:36:36;;;;;;;12.02;3.80;;;;;;;;;;5108527;28;20039;-69
2021/06/03 06:39:04;;;;;;;7.43;2.45;;;;;;;;;;5109802;28;20012;-68
2021/06/03 06:41:32;;;;;;;5.78;2.75;;;;;;;;;;5109039;28;20080;-67
2021/06/03 06:43:59;;;;;;;13.93;3.75;;;;;;;;;;5110253;28;20100;-73
2021/06/03 06:46:27;;;;;;;18.10;4.55;;;;;;;;;;5109310;28;20437;-71
2021/06/03 06:48:55;;;;;;;9.63;3.17;;;;;;;;;;5102735;28;20035;-72
2021/06/03 06:51:22;;;;;;;8.18;3.13;;;;;;;;;;5106380;28;20016;-72
2021/06/03 06:53:50;;;;;;;6.00;2.53;;;;;;;;;;5103093;28;20039;-72
2021/06/03 06:56:18;;;;;;;9.60;3.10;;;;;;;;;;5103199;28;20020;-72
2021/06/03 06:58:45;;;;;;;10.75;3.00;;;;;;;;;;5100173;28;20061;-72
2021/06/03 07:01:13;;;;;;;8.95;2.95;;;;;;;;;;5106697;28;20095;-71
2021/06/03 07:03:40;;;;;;;11.93;3.25;;;;;;;;;;5109203;28;20034;-70
2021/06/03 07:06:08;;;;;;;7.70;2.65;;;;;;;;;;5124058;27;20015;-72
2021/06/03 07:08:36;;;;;;;7.80;3.28;;;;;;;;;;5109209;28;20015;-70
2021/06/03 07:11:03;;;;;;;10.23;3.22;;;;;;;;;;5108864;28;20027;-69
2021/06/03 07:13:31;;;;;;;6.75;2.70;;;;;;;;;;5110849;28;20275;-69
2021/06/03 07:15:59;;;;;;;11.18;3.50;;;;;;;;;;5114047;28;20102;-70
2021/06/03 07:18:27;;;;;;;13.82;3.72;;;;;;;;;;5108566;28;20468;-70
2021/06/03 07:20:54;;;;;;;11.65;3.55;;;;;;;;;;5122965;28;20022;-69
2021/06/03 07:23:22;;;;;;;21.42;5.18;;;;;;;;;;5107867;28;20511;-64
2021/06/03 07:25:50;;;;;;;15.07;4.00;;;;;;;;;;5107922;28;20050;-65
2021/06/03 07:28:17;;;;;;;14.27;3.53;;;;;;;;;;5108298;28;20038;-64
2021/06/03 07:30:45;;;;;;;10.30;2.85;;;;;;;;;;5107606;28;20126;-64
2021/06/03 07:33:12;;;;;;;14.75;3.92;;;;;;;;;;5097114;28;20054;-65
2021/06/03 07:35:40;;;;;;;12.23;3.22;;;;;;;;;;5092213;28;20556;-65
2021/06/03 07:38:09;;;;;;;20.77;3.53;;;;;;;;;;5102463;28;20384;-67
2021/06/03 07:40:38;;;;;;;13.18;3.53;;;;;;;;;;5107561;28;20016;-67
2021/06/03 07:43:07;;;;;;;15.80;3.55;;;;;;;;;;5107272;28;20118;-66
2021/06/03 07:45:34;;;;;;;12.57;2.97;;;;;;;;;;5091761;28;20059;-68
2021/06/03 07:48:02;;;;;;;16.40;4.03;;;;;;;;;;5094377;28;20028;-68
2021/06/03 07:50:31;;;;;;;19.05;4.53;;;;;;;;;;5093195;28;20508;-68
2021/06/03 07:52:57;;;;;;;;;;;;;;;;;;5094023;28;20039;-67
2021/06/03 07:55:25;;;;;;;17.23;4.70;;;;;;;;;;5094982;28;19990;-67
2021/06/03 07:57:55;;;;;;;19.42;4.35;;;;;;;;;;5097907;28;20739;-68
2021/06/03 08:00:23;;;;;;;13.30;4.10;;;;;;;;;;5093268;28;20523;-68
2021/06/03 08:02:51;;;;;;;12.98;2.70;;;;;;;;;;5094080;28;20016;-69
2021/06/03 08:05:20;;;;;;;17.30;3.67;;;;;;;;;;5095509;28;20031;-74
2021/06/03 08:07:49;;;;;;;5.38;2.40;;;;;;;;;;5098928;28;20083;-74
2021/06/03 08:10:18;;;;;;;16.30;4.45;;;;;;;;;;5096905;28;20152;-74
2021/06/03 08:12:46;;;;;;;13.75;3.92;;;;;;;;;;5103826;28;20092;-75
2021/06/03 08:15:14;;;;;;;12.75;3.35;;;;;;;;;;5102565;28;20012;-73
2021/06/03 08:17:42;;;;;;;12.43;3.45;;;;;;;;;;5101127;28;20024;-76
2021/06/03 08:20:13;;;;;;;18.27;4.18;;;;;;;;;;5109879;28;20014;-72
2021/06/03 08:22:41;;;;;;;8.95;2.88;;;;;;;;;;5077341;28;20105;-74
2021/06/03 08:25:09;;;;;;;12.80;2.75;;;;;;;;;;5092218;28;20019;-67
2021/06/03 08:27:37;;;;;;;19.63;5.20;;;;;;;;;;5092604;28;20032;-67
2021/06/03 08:30:06;;;;;;;11.40;3.33;;;;;;;;;;5098488;28;20256;-67
2021/06/03 08:32:34;;;;;;;12.48;2.85;;;;;;;;;;5099110;28;20050;-67
2021/06/03 08:35:02;;;;;;;16.08;4.10;;;;;;;;;;5087755;28;20026;-68
2021/06/03 08:37:30;;;;;;;11.65;3.60;;;;;;;;;;5081164;28;20012;-68
2021/06/03 08:39:57;;;;;;;13.85;3.35;;;;;;;;;;5092661;28;20093;-68
2021/06/03 08:42:25;;;;;;;11.85;3.47;;;;;;;;;;5078769;28;20024;-67
2021/06/03 08:44:53;;;;;;;43.22;4.90;;;;;;;;;;5088524;28;20107;-66
2021/06/03 08:47:20;;;;;;;3.23;1.67;;;;;;;;;;5092212;28;20020;-66
2021/06/03 08:49:48;;;;;;;6.85;1.88;;;;;;;;;;5093332;28;20422;-65
2021/06/03 08:52:17;;;;;;;5.30;1.83;;;;;;;;;;5092525;28;20432;-71
2021/06/03 08:54:45;;;;;;;4.40;1.70;;;;;;;;;;5092261;28;20016;-70
2021/06/03 08:57:13;;;;;;;2.33;1.63;;;;;;;;;;5091318;28;20044;-65
2021/06/03 08:59:41;;;;;;;6.25;1.90;;;;;;;;;;5093117;28;20028;-68
2021/06/03 09:02:09;;;;;;;4.85;1.90;;;;;;;;;;5085622;28;20028;-69
2021/06/03 09:04:36;;;;;;;3.08;2.05;;;;;;;;;;5088154;28;20380;-70
2021/06/03 09:07:04;;;;;;;3.88;2.10;;;;;;;;;;5091498;28;20020;-69
2021/06/03 09:09:33;;;;;;;5.10;2.42;;;;;;;;;;5088716;28;20437;-70
2021/06/03 09:12:10;;;;;;;4.13;2.40;;;;;;;;;;5084434;28;20034;-68
2021/06/03 09:14:38;;;;;;;3.33;1.83;;;;;;;;;;5091627;28;20035;-70
2021/06/03 09:17:06;;;;;;;4.75;2.40;;;;;;;;;;5092363;28;20488;-70
2021/06/03 09:19:33;;;;;;;5.80;1.88;;;;;;;;;;5091659;28;20031;-69
2021/06/03 09:22:02;;;;;;;4.60;2.17;;;;;;;;;;5091870;28;20103;-70
2021/06/03 09:24:32;;;;;;;5.32;2.72;;;;;;;;;;5092032;28;20445;-70
2021/06/03 09:27:01;;;;;;;5.82;2.30;;;;;;;;;;5092728;28;20043;-69
2021/06/03 09:29:31;;;;;;;7.40;2.03;;;;;;;;;;5092987;28;20020;-70
2021/06/03 09:32:12;;;;;;;4.38;2.30;;;;;;;;;;5093031;28;20029;-69
2021/06/03 09:34:41;;;;;;;5.25;1.80;;;;;;;;;;5092913;28;20179;-70
2021/06/03 09:37:10;;;;;;;4.72;2.13;;;;;;;;;;5092835;28;20024;-66
2021/06/03 09:39:40;;;;;;;7.30;2.30;;;;;;;;;;5095374;28;20051;-67
2021/06/03 09:42:14;;;;;;;3.50;1.77;;;;;;;;;;5101566;28;20027;-69
2021/06/03 09:44:42;;;;;;;4.78;2.55;;;;;;;;;;5099394;28;20107;-70
2021/06/03 09:47:14;;;;;;;4.60;2.10;;;;;;;;;;5092886;28;20054;-69
2021/06/03 09:49:44;;;;;;;1.92;1.42;;;;;;;;;;5091040;28;20027;-69
2021/06/03 09:52:16;;;;;;;7.40;2.38;;;;;;;;;;5092128;28;20028;-69
2021/06/03 09:54:55;;;;;;;2.55;1.70;;;;;;;;;;5072591;28;20069;-70
2021/06/03 09:57:29;;;;;;;6.97;2.75;;;;;;;;;;5072083;28;20024;-71
2021/06/03 10:00:02;;;;;;;2.78;2.00;;;;;;;;;;5081443;28;20024;-67
2021/06/03 10:02:33;;;;;;;4.65;1.77;;;;;;;;;;5081708;28;20059;-68
2021/06/03 10:05:01;;;;;;;3.58;1.85;;;;;;;;;;5076157;28;20032;-70
2021/06/03 10:07:31;;;;;;;4.57;2.13;;;;;;;;;;5088037;28;20039;-70
2021/06/03 10:10:12;;;;;;;2.92;1.90;;;;;;;;;;5078648;28;20017;-70
2021/06/03 10:12:43;;;;;;;3.92;1.90;;;;;;;;;;5080895;28;20465;-69
2021/06/03 10:15:13;;;;;;;4.88;2.00;;;;;;;;;;5079033;28;20473;-69
2021/06/03 10:18:00;;;;;;;5.30;2.10;;;;;;;;;;5089679;28;20039;-70
2021/06/03 10:20:46;;;;;;;6.03;2.50;;;;;;;;;;5085385;28;20461;-69
2021/06/03 10:23:15;;;;;;;4.55;1.92;;;;;;;;;;5083769;28;20020;-70
2021/06/03 10:25:43;;;;;;;6.32;2.13;;;;;;;;;;5091705;28;20059;-68
2021/06/03 10:28:15;;;;;;;4.43;2.40;;;;;;;;;;5090337;28;20032;-67
2021/06/03 10:30:47;;;;;;;4.45;2.30;;;;;;;;;;5091515;28;20046;-70
2021/06/03 10:33:16;;;;;;;3.55;2.10;;;;;;;;;;5089368;28;20435;-70
2021/06/03 10:35:46;;;;;;;5.40;2.05;;;;;;;;;;5091239;28;20032;-69
2021/06/03 10:38:14;;;;;;;6.03;2.28;;;;;;;;;;5082703;28;20380;-68
2021/06/03 10:40:51;;;;;;;2.92;2.38;;;;;;;;;;5088529;28;20101;-69
2021/06/03 10:43:19;;;;;;;2.60;1.98;;;;;;;;;;5090588;28;20484;-68
2021/06/03 10:45:47;;;;;;;6.03;2.45;;;;;;;;;;5087727;28;20027;-69
2021/06/03 10:48:14;;;;;;;4.20;2.27;;;;;;;;;;5095038;28;20027;-69
2021/06/03 10:50:42;;;;;;;4.25;2.15;;;;;;;;;;5085468;28;20331;-69
2021/06/03 10:53:11;;;;;;;3.53;2.10;;;;;;;;;;5089053;28;20039;-69
2021/06/03 10:55:42;;;;;;;6.63;2.03;;;;;;;;;;5086835;28;20020;-69
2021/06/03 10:58:11;;;;;;;6.07;2.15;;;;;;;;;;5087850;28;20353;-69
2021/06/03 11:00:46;;;;;;;9.05;2.33;;;;;;;;;;5088300;28;20030;-67
2021/06/03 11:03:19;;;;;;;4.50;2.33;;;;;;;;;;5081096;28;20111;-69
2021/06/03 11:05:59;;;;;;;5.90;2.13;;;;;;;;;;5081130;28;20124;-72
2021/06/03 11:08:34;;;;;;;9.55;2.72;;;;;;;;;;5088611;28;20087;-69
2021/06/03 11:11:14;;;;;;;5.18;2.00;;;;;;;;;;5085846;28;20020;-73
2021/06/03 11:13:47;;;;;;;7.50;2.17;;;;;;;;;;5090919;28;20357;-73
2021/06/03 11:16:18;;;;;;;5.93;2.45;;;;;;;;;;5090395;28;20491;-69
2021/06/03 11:18:49;;;;;;;3.05;2.00;;;;;;;;;;5090172;28;20032;-69
2021/06/03 11:21:35;;;;;;;6.95;2.33;;;;;;;;;;5094074;28;20169;-72
2021/06/03 11:24:04;;;;;;;2.47;1.95;;;;;;;;;;5095786;28;20016;-69
2021/06/03 11:26:44;;;;;;;5.28;1.80;;;;;;;;;;5096342;28;20035;-67
2021/06/03 11:29:12;;;;;;;3.45;2.30;;;;;;;;;;5088736;28;20035;-71
2021/06/03 11:31:41;;;;;;;7.90;2.87;;;;;;;;;;5093990;28;20107;-75
2021/06/03 11:34:09;;;;;;;5.05;2.30;;;;;;;;;;5113389;28;20328;-69
2021/06/03 11:36:36;;;;;;;;;;;;;;;;;;5109115;28;20039;-70
2021/06/03 11:39:05;;;;;;;3.72;2.25;;;;;;;;;;5094577;28;19912;-73
2021/06/03 11:41:39;;;;;;;3.97;1.98;;;;;;;;;;5092417;28;20027;-73
2021/06/03 11:44:10;;;;;;;4.05;2.00;;;;;;;;;;5094698;28;20020;-73
2021/06/03 11:46:57;;;;;;;5.82;2.65;;;;;;;;;;5084754;28;20051;-72
2021/06/03 11:49:42;;;;;;;6.28;2.80;;;;;;;;;;5093390;28;20032;-75
2021/06/03 11:52:11;;;;;;;4.57;2.10;;;;;;;;;;5102676;28;20036;-74
2021/06/03 11:54:57;;;;;;;3.55;2.00;;;;;;;;;;5105331;28;20087;-73
2021/06/03 11:57:26;;;;;;;6.93;2.72;;;;;;;;;;5093152;28;20016;-74
2021/06/03 12:00:08;;;;;;;9.55;2.50;;;;;;;;;;5094022;28;20081;-70
2021/06/03 12:02:37;;;;;;;5.80;2.30;;;;;;;;;;5079597;28;20414;-70
2021/06/03 12:05:03;;;;;;;;;;;;;;;;;;5082934;28;20016;-69
2021/06/03 12:07:48;;;;;;;6.13;2.78;;;;;;;;;;5092820;28;19912;-70
2021/06/03 12:10:17;;;;;;;3.70;2.28;;;;;;;;;;5092638;28;20751;-69
2021/06/03 12:12:45;;;;;;;5.95;3.08;;;;;;;;;;5093232;28;20031;-68
2021/06/03 12:15:26;;;;;;;4.22;2.38;;;;;;;;;;5093977;28;20411;-69
2021/06/03 12:17:58;;;;;;;4.85;2.05;;;;;;;;;;5092177;28;20020;-68
2021/06/03 12:20:24;;;;;;;4.85;2.90;;;;;;;;;;5084507;28;20039;-70
2021/06/03 12:22:50;;;;;;;4.38;2.20;;;;;;;;;;5092631;28;20020;-72
2021/06/03 12:25:16;;;;;;;2.83;1.92;;;;;;;;;;5091961;28;20388;-68
2021/06/03 12:27:43;;;;;;;4.20;2.22;;;;;;;;;;5093349;28;20027;-71
2021/06/03 12:30:10;;;;;;;2.22;1.88;;;;;;;;;;5092426;28;20028;-70
2021/06/03 12:32:35;;;;;;;2.47;1.67;;;;;;;;;;5090937;28;20511;-71
2021/06/03 12:35:01;;;;;;;2.65;1.90;;;;;;;;;;5090007;28;20024;-69
2021/06/03 12:37:28;;;;;;;4.05;2.10;;;;;;;;;;5091576;28;20026;-71
2021/06/03 12:39:53;;;;;;;5.95;2.25;;;;;;;;;;5090364;28;20024;-70
2021/06/03 12:42:20;;;;;;;3.53;2.20;;;;;;;;;;5093317;28;20472;-71
2021/06/03 12:44:56;;;;;;;5.35;2.17;;;;;;;;;;5111615;28;20019;-71
2021/06/03 12:47:23;;;;;;;3.40;1.92;;;;;;;;;;5091886;28;20476;-71
2021/06/03 12:49:49;;;;;;;5.28;1.85;;;;;;;;;;5092820;28;20074;-70
2021/06/03 12:52:17;;;;;;;4.28;2.22;;;;;;;;;;5091633;28;20373;-71
2021/06/03 12:54:45;;;;;;;4.75;1.80;;;;;;;;;;5089529;28;20019;-71
2021/06/03 12:57:11;;;;;;;12.98;2.92;;;;;;;;;;5087843;28;20373;-68
2021/06/03 12:59:38;;;;;;;6.13;2.00;;;;;;;;;;5091641;28;20672;-71
2021/06/03 13:02:07;;;;;;;5.15;1.80;;;;;;;;;;5091897;28;20447;-72
2021/06/03 13:04:37;;;;;;;2.55;1.92;;;;;;;;;;5108587;28;20008;-71
2021/06/03 13:07:03;;;;;;;5.68;2.38;;;;;;;;;;5092349;28;20059;-72
2021/06/03 13:09:28;;;;;;;2.50;2.08;;;;;;;;;;5082144;28;20166;-71
2021/06/03 13:11:54;;;;;;;3.00;1.90;;;;;;;;;;5092048;28;20099;-69
2021/06/03 13:14:20;;;;;;;4.43;1.90;;;;;;;;;;5092400;28;20103;-70
2021/06/03 13:16:47;;;;;;;2.80;1.98;;;;;;;;;;5087752;28;20012;-71
2021/06/03 13:19:18;;;;;;;5.80;2.20;;;;;;;;;;5091470;28;20012;-71
2021/06/03 13:21:45;;;;;;;3.15;2.40;;;;;;;;;;5088723;28;20036;-71
2021/06/03 13:24:29;;;;;;;8.07;2.22;;;;;;;;;;5091878;28;20057;-68
2021/06/03 13:26:58;;;;;;;3.15;1.85;;;;;;;;;;5081070;28;20023;-67
2021/06/03 13:29:24;;;;;;;4.15;1.83;;;;;;;;;;5091644;28;20632;-67
2021/06/03 13:31:50;;;;;;;5.15;2.20;;;;;;;;;;5091089;28;20024;-71
2021/06/03 13:34:37;;;;;;;3.03;2.10;;;;;;;;;;5091427;28;20044;-70
2021/06/03 13:37:05;;;;;;;2.45;1.98;;;;;;;;;;5089506;28;20069;-71
2021/06/03 13:39:32;;;;;;;7.63;1.85;;;;;;;;;;5086878;28;20396;-67
2021/06/03 13:42:05;;;;;;;5.45;1.85;;;;;;;;;;5083837;28;20039;-68
2021/06/03 13:44:30;;;;;;;9.35;1.90;;;;;;;;;;5106566;28;20173;-69
2021/06/03 13:46:56;;;;;;;2.45;1.88;;;;;;;;;;5089817;28;20107;-69
2021/06/03 13:49:25;;;;;;;4.05;1.90;;;;;;;;;;5085567;28;20016;-69
2021/06/03 13:51:58;;;;;;;5.13;1.85;;;;;;;;;;5085153;28;20020;-69
2021/06/03 13:54:24;;;;;;;3.28;1.77;;;;;;;;;;5083917;28;20962;-69
2021/06/03 13:56:52;;;;;;;9.32;2.03;;;;;;;;;;5080742;28;21322;-68
2021/06/03 13:59:18;;;;;;;5.05;2.00;;;;;;;;;;5086203;28;20028;-68
2021/06/03 14:01:45;;;;;;;4.63;2.10;;;;;;;;;;5086303;28;20618;-72
2021/06/03 14:04:11;;;;;;;3.22;1.98;;;;;;;;;;5082327;28;20107;-70
2021/06/03 14:06:38;;;;;;;2.60;2.13;;;;;;;;;;5081454;28;20027;-71
2021/06/03 14:09:23;;;;;;;2.42;1.90;;;;;;;;;;5087690;28;20554;-70
2021/06/03 14:14:38;;;;;;;3.13;2.20;;;;;;;;;;5084282;28;20127;-69
2021/06/03 14:17:14;;;;;;;5.70;2.03;;;;;;;;;;5089037;28;20031;-69
2021/06/03 14:19:47;;;;;;;4.18;1.98;;;;;;;;;;5086729;28;20024;-69
2021/06/03 14:22:20;;;;;;;3.38;2.33;;;;;;;;;;5087602;28;20020;-69
2021/06/03 14:25:04;;;;;;;2.50;1.92;;;;;;;;;;5089999;28;20012;-70
2021/06/03 14:27:40;;;;;;;3.58;2.08;;;;;;;;;;5086388;28;20017;-71
2021/06/03 14:30:18;;;;;;;3.00;2.00;;;;;;;;;;5090104;28;20048;-73
2021/06/03 14:32:51;;;;;;;3.30;2.13;;;;;;;;;;5089258;28;20043;-73
2021/06/03 14:35:36;;;;;;;4.45;1.90;;;;;;;;;;5066240;28;20016;-70
2021/06/03 14:38:07;;;;;;;6.97;2.03;;;;;;;;;;5076013;28;20027;-70
2021/06/03 14:40:57;;;;;;;2.78;2.00;;;;;;;;;;5103316;28;20024;-70
2021/06/03 14:43:23;;;;;;;;;;;;;;;;;;5091750;28;20024;-70
2021/06/03 14:45:58;;;;;;;7.03;2.30;;;;;;;;;;5091833;28;19912;-70
2021/06/03 14:48:25;;;;;;;16.23;2.80;;;;;;;;;;5077685;28;20026;-72
2021/06/03 14:50:52;;;;;;;5.50;2.13;;;;;;;;;;5088056;28;20012;-67
2021/06/03 14:53:19;;;;;;;3.75;2.00;;;;;;;;;;5090764;28;20113;-67
2021/06/03 14:55:46;;;;;;;3.92;2.13;;;;;;;;;;5095302;28;20012;-68
2021/06/03 14:58:13;;;;;;;3.70;2.05;;;;;;;;;;5095007;28;21001;-67
2021/06/03 15:00:41;;;;;;;2.40;2.15;;;;;;;;;;5094823;28;20023;-67
2021/06/03 15:03:07;;;;;;;3.35;2.22;;;;;;;;;;5094477;28;20051;-69
2021/06/03 15:05:33;;;;;;;4.80;2.00;;;;;;;;;;5095530;28;20538;-70
2021/06/03 15:07:59;;;;;;;13.90;2.97;;;;;;;;;;5094716;28;20111;-66
2021/06/03 15:10:26;;;;;;;8.43;2.55;;;;;;;;;;5095112;28;20099;-67
2021/06/03 15:12:52;;;;;;;7.22;1.92;;;;;;;;;;5094311;28;20020;-67
2021/06/03 15:15:19;;;;;;;2.45;1.88;;;;;;;;;;5094882;28;20024;-67
2021/06/03 15:17:45;;;;;;;7.30;2.53;;;;;;;;;;5093634;28;20020;-67
2021/06/03 15:20:13;;;;;;;3.25;2.15;;;;;;;;;;5093289;28;20555;-67
2021/06/03 15:22:40;;;;;;;6.95;2.38;;;;;;;;;;5094813;28;20480;-66
2021/06/03 15:25:06;;;;;;;5.75;2.05;;;;;;;;;;5088207;28;20033;-66
2021/06/03 15:27:32;;;;;;;5.88;2.08;;;;;;;;;;5094610;28;20015;-66
2021/06/03 15:30:00;;;;;;;6.32;2.00;;;;;;;;;;5093608;28;20032;-67
2021/06/03 15:32:26;;;;;;;2.60;1.85;;;;;;;;;;5093937;28;20492;-66
2021/06/03 15:34:52;;;;;;;4.30;2.03;;;;;;;;;;5094860;28;20016;-65
2021/06/03 15:37:17;;;;;;;5.03;2.03;;;;;;;;;;5094525;28;20508;-67
2021/06/03 15:39:42;;;;;;;2.58;1.85;;;;;;;;;;5093192;28;20024;-65
2021/06/03 15:42:10;;;;;;;3.00;2.33;;;;;;;;;;5094947;28;20507;-66
2021/06/03 15:44:37;;;;;;;2.25;1.83;;;;;;;;;;5094861;28;20103;-66
2021/06/03 15:47:02;;;;;;;5.82;2.22;;;;;;;;;;5094109;28;20032;-66
2021/06/03 15:49:29;;;;;;;3.72;1.92;;;;;;;;;;5093809;28;20032;-66
2021/06/03 15:51:55;;;;;;;3.90;1.58;;;;;;;;;;5093415;28;20115;-66
2021/06/03 15:54:21;;;;;;;3.00;1.83;;;;;;;;;;5093811;28;20110;-66
2021/06/03 15:56:47;;;;;;;3.65;2.53;;;;;;;;;;5094882;28;20353;-65
2021/06/03 15:59:13;;;;;;;3.58;2.10;;;;;;;;;;5094227;28;20050;-65
2021/06/03 16:01:39;;;;;;;4.72;2.10;;;;;;;;;;5095078;28;20468;-65
2021/06/03 16:04:06;;;;;;;3.13;2.20;;;;;;;;;;5094807;28;20023;-65
2021/06/03 16:06:32;;;;;;;2.53;2.03;;;;;;;;;;5094869;28;20073;-65
2021/06/03 16:08:57;;;;;;;5.32;2.00;;;;;;;;;;5095104;28;20019;-65
2021/06/03 16:11:24;;;;;;;3.97;1.92;;;;;;;;;;5095022;28;20020;-64
2021/06/03 16:13:49;;;;;;;2.83;1.98;;;;;;;;;;5093517;28;20092;-65
2021/06/03 16:16:15;;;;;;;2.78;2.15;;;;;;;;;;5095009;28;20012;-65
2021/06/03 16:18:40;;;;;;;4.22;2.10;;;;;;;;;;5094981;28;20432;-65
2021/06/03 16:21:07;;;;;;;2.88;2.15;;;;;;;;;;5094303;28;20158;-65
2021/06/03 16:23:33;;;;;;;4.85;2.25;;;;;;;;;;5094893;28;20019;-64
2021/06/03 16:26:01;;;;;;;3.22;2.15;;;;;;;;;;5094807;28;20039;-64
2021/06/03 16:28:27;;;;;;;8.07;2.20;;;;;;;;;;5094591;28;20483;-65
2021/06/03 16:30:53;;;;;;;3.75;2.20;;;;;;;;;;5094652;28;20016;-65
2021/06/03 16:33:20;;;;;;;5.65;2.20;;;;;;;;;;5093850;28;20130;-64
2021/06/03 16:35:47;;;;;;;5.65;2.20;;;;;;;;;;5094597;28;20023;-65
2021/06/03 16:38:15;;;;;;;4.18;1.98;;;;;;;;;;5094543;28;20016;-64
2021/06/03 16:40:42;;;;;;;3.90;1.63;;;;;;;;;;5094790;28;20070;-64
2021/06/03 16:43:10;;;;;;;2.90;2.15;;;;;;;;;;5094928;28;20031;-64
2021/06/03 16:45:35;;;;;;;2.90;2.13;;;;;;;;;;5092159;28;20020;-65
2021/06/03 16:48:01;;;;;;;3.05;1.95;;;;;;;;;;5093889;28;20020;-65
2021/06/03 16:50:28;;;;;;;3.63;1.90;;;;;;;;;;5093736;28;20030;-65
2021/06/03 16:52:55;;;;;;;3.90;2.03;;;;;;;;;;5094068;28;20544;-65
2021/06/03 16:55:22;;;;;;;1.85;1.65;;;;;;;;;;5093743;28;20020;-65
2021/06/03 16:57:48;;;;;;;2.05;1.70;;;;;;;;;;5094213;28;20568;-64
2021/06/03 17:00:16;;;;;;;1.90;1.67;;;;;;;;;;5093723;28;20103;-64
2021/06/03 17:02:43;;;;;;;2.42;2.10;;;;;;;;;;5094125;28;20026;-64
2021/06/03 17:05:09;;;;;;;3.42;2.42;;;;;;;;;;5093946;28;20020;-64
2021/06/03 17:07:34;;;;;;;4.05;2.20;;;;;;;;;;5093786;28;20521;-64
2021/06/03 17:10:00;;;;;;;2.00;1.80;;;;;;;;;;5093789;28;20028;-64
2021/06/03 17:12:26;;;;;;;2.65;2.10;;;;;;;;;;5093770;28;20030;-64
2021/06/03 17:14:53;;;;;;;4.97;2.30;;;;;;;;;;5092592;28;20149;-65
2021/06/03 17:17:19;;;;;;;3.67;1.98;;;;;;;;;;5092618;28;20205;-64
2021/06/03 17:19:45;;;;;;;5.82;2.58;;;;;;;;;;5093958;28;20055;-64
2021/06/03 17:22:11;;;;;;;4.65;2.22;;;;;;;;;;5092867;28;20062;-64
2021/06/03 17:24:37;;;;;;;8.43;2.75;;;;;;;;;;5093837;28;20069;-65
2021/06/03 17:27:03;;;;;;;4.80;2.22;;;;;;;;;;5093465;28;20020;-65
2021/06/03 17:29:29;;;;;;;6.30;2.15;;;;;;;;;;5093099;28;20012;-65
2021/06/03 17:31:55;;;;;;;5.80;2.55;;;;;;;;;;5093383;28;20012;-64
2021/06/03 17:34:21;;;;;;;7.25;2.45;;;;;;;;;;5093280;28;20067;-64
2021/06/03 17:36:48;;;;;;;16.10;2.83;;;;;;;;;;5093450;28;20024;-64
2021/06/03 17:39:16;;;;;;;17.33;2.35;;;;;;;;;;5091671;28;20437;-64
2021/06/03 17:41:42;;;;;;;7.10;2.83;;;;;;;;;;5093410;28;20107;-64
2021/06/03 17:44:08;;;;;;;8.57;2.35;;;;;;;;;;5093099;28;20066;-64
2021/06/03 17:46:36;;;;;;;5.65;2.47;;;;;;;;;;5093248;28;20016;-65
2021/06/03 17:49:02;;;;;;;7.40;3.08;;;;;;;;;;5094012;28;20473;-64
2021/06/03 17:51:28;;;;;;;6.88;2.40;;;;;;;;;;5092378;28;20020;-64
2021/06/03 17:53:54;;;;;;;12.52;2.60;;;;;;;;;;5093015;28;20135;-64
2021/06/03 17:56:19;;;;;;;5.68;2.50;;;;;;;;;;5091865;28;20527;-64
2021/06/03 17:58:46;;;;;;;5.47;2.30;;;;;;;;;;5093246;28;20020;-64
2021/06/03 18:01:12;;;;;;;7.00;2.88;;;;;;;;;;5092777;28;20020;-64
2021/06/03 18:03:38;;;;;;;11.70;4.10;;;;;;;;;;5092965;28;20012;-64
2021/06/03 18:06:04;;;;;;;11.02;3.08;;;;;;;;;;5092670;28;20019;-64
2021/06/03 18:08:30;;;;;;;6.25;2.28;;;;;;;;;;5092929;28;20387;-64
2021/06/03 18:10:56;;;;;;;4.97;2.22;;;;;;;;;;5091587;28;20085;-64
2021/06/03 18:13:23;;;;;;;9.93;2.90;;;;;;;;;;5092213;28;20531;-64
2021/06/03 18:15:49;;;;;;;13.48;2.80;;;;;;;;;;5092979;28;20031;-64
2021/06/03 18:18:15;;;;;;;27.73;3.72;;;;;;;;;;5092840;28;20020;-64
2021/06/03 18:20:42;;;;;;;17.90;3.60;;;;;;;;;;5090022;28;20027;-64
2021/06/03 18:23:09;;;;;;;11.40;2.70;;;;;;;;;;5092454;28;20039;-65
2021/06/03 18:25:36;;;;;;;9.10;2.75;;;;;;;;;;5092690;28;20488;-64
2021/06/03 18:28:02;;;;;;;11.27;2.63;;;;;;;;;;5092274;28;20024;-64
2021/06/03 18:30:29;;;;;;;13.13;2.30;;;;;;;;;;5092681;28;20031;-64
2021/06/03 18:32:55;;;;;;;9.93;2.72;;;;;;;;;;5092326;28;20443;-64
2021/06/03 18:35:23;;;;;;;5.80;2.45;;;;;;;;;;5092243;28;20058;-64
2021/06/03 18:37:49;;;;;;;10.18;3.10;;;;;;;;;;5091241;28;20081;-64
2021/06/03 18:40:16;;;;;;;7.10;3.22;;;;;;;;;;5092539;28;20221;-64
2021/06/03 18:42:42;;;;;;;8.07;3.15;;;;;;;;;;5092660;28;20028;-64
2021/06/03 18:45:10;;;;;;;6.78;2.55;;;;;;;;;;5092557;28;20047;-64
2021/06/03 18:47:36;;;;;;;7.13;3.25;;;;;;;;;;5092514;28;20015;-64
2021/06/03 18:50:04;;;;;;;3.50;2.30;;;;;;;;;;5092418;28;20055;-64
2021/06/03 18:52:30;;;;;;;8.98;2.83;;;;;;;;;;5090628;28;20055;-64
2021/06/03 18:54:57;;;;;;;7.63;3.22;;;;;;;;;;5092712;28;20095;-64
2021/06/03 18:57:22;;;;;;;8.63;2.95;;;;;;;;;;5092701;28;20016;-64
2021/06/03 18:59:48;;;;;;;5.97;2.60;;;;;;;;;;5092277;28;20027;-64
2021/06/03 19:02:15;;;;;;;8.15;2.88;;;;;;;;;;5091986;28;20016;-64
2021/06/03 19:04:44;;;;;;;4.68;3.03;;;;;;;;;;5092584;28;20051;-64
2021/06/03 19:07:10;;;;;;;14.13;3.72;;;;;;;;;;5092163;28;20047;-64
2021/06/03 19:09:35;;;;;;;15.02;3.10;;;;;;;;;;5092534;28;20417;-65
2021/06/03 19:12:01;;;;;;;18.90;4.47;;;;;;;;;;5092139;28;20059;-64
2021/06/03 19:14:29;;;;;;;17.50;4.53;;;;;;;;;;5092229;28;20049;-64
2021/06/03 19:16:56;;;;;;;11.45;3.40;;;;;;;;;;5092509;28;20035;-64
2021/06/03 19:19:23;;;;;;;7.05;3.25;;;;;;;;;;5092004;28;20016;-64
2021/06/03 19:21:48;;;;;;;6.60;3.83;;;;;;;;;;5091516;28;20096;-64
2021/06/03 19:24:15;;;;;;;7.78;3.63;;;;;;;;;;5091969;28;20150;-64
2021/06/03 19:26:41;;;;;;;10.45;3.65;;;;;;;;;;5091836;28;20012;-64
2021/06/03 19:29:07;;;;;;;7.10;3.33;;;;;;;;;;5091822;28;20012;-64
2021/06/03 19:31:34;;;;;;;6.22;3.88;;;;;;;;;;5091905;28;20028;-64
2021/06/03 19:34:00;;;;;;;6.78;3.10;;;;;;;;;;5091620;28;20507;-64
2021/06/03 19:36:26;;;;;;;11.95;3.75;;;;;;;;;;5091750;28;20107;-64
2021/06/03 19:38:51;;;;;;;14.13;4.72;;;;;;;;;;5090658;28;20362;-64
2021/06/03 19:41:18;;;;;;;12.85;3.97;;;;;;;;;;5094098;28;20028;-64
2021/06/03 19:43:43;;;;;;;7.03;3.83;;;;;;;;;;5095503;28;20023;-64
2021/06/03 19:46:10;;;;;;;6.22;4.25;;;;;;;;;;5095465;28;20019;-64
2021/06/03 19:48:36;;;;;;;11.68;3.97;;;;;;;;;;5094520;28;20023;-64
2021/06/03 19:51:02;;;;;;;10.18;4.10;;;;;;;;;;5094967;28;20070;-64
2021/06/03 19:53:29;;;;;;;14.50;4.25;;;;;;;;;;5095403;28;20028;-64
2021/06/03 19:55:54;;;;;;;12.00;4.45;;;;;;;;;;5093164;28;20020;-64
2021/06/03 19:58:21;;;;;;;21.00;4.78;;;;;;;;;;5094702;28;20016;-64
2021/06/03 20:00:50;;;;;;;17.20;4.80;;;;;;;;;;5095362;28;20077;-64
2021/06/03 20:03:15;;;;;;;17.58;4.72;;;;;;;;;;5095147;28;20089;-64
2021/06/03 20:05:42;;;;;;;13.20;5.80;;;;;;;;;;5095153;28;20464;-64
2021/06/03 20:08:09;;;;;;;10.90;4.13;;;;;;;;;;5095244;28;20026;-64
2021/06/03 20:10:35;;;;;;;8.18;4.22;;;;;;;;;;5094947;28;20023;-64
2021/06/03 20:13:02;;;;;;;8.43;3.42;;;;;;;;;;5095142;28;20429;-64
2021/06/03 20:15:28;;;;;;;8.73;3.78;;;;;;;;;;5094768;28;20016;-64
2021/06/03 20:17:54;;;;;;;12.98;3.85;;;;;;;;;;5092916;28;20022;-64
2021/06/03 20:20:21;;;;;;;13.98;4.03;;;;;;;;;;5094044;28;20020;-64
2021/06/03 20:22:47;;;;;;;13.35;5.07;;;;;;;;;;5095225;28;20016;-64
2021/06/03 20:25:16;;;;;;;13.75;4.53;;;;;;;;;;5094130;28;20399;-64
2021/06/03 20:27:42;;;;;;;14.20;4.83;;;;;;;;;;5095012;28;20020;-64
2021/06/03 20:30:10;;;;;;;11.75;4.32;;;;;;;;;;5094732;28;20244;-64
2021/06/03 20:32:36;;;;;;;16.38;4.80;;;;;;;;;;5093237;28;20040;-64
2021/06/03 20:35:02;;;;;;;12.35;4.28;;;;;;;;;;5094451;28;20039;-64
2021/06/03 20:37:28;;;;;;;14.13;4.13;;;;;;;;;;5094277;28;20046;-64
2021/06/03 20:39:54;;;;;;;8.23;3.92;;;;;;;;;;5094427;28;20020;-64
2021/06/03 20:42:20;;;;;;;7.68;4.60;;;;;;;;;;5094348;28;20484;-64
2021/06/03 20:44:46;;;;;;;7.03;4.38;;;;;;;;;;5094532;28;20027;-64
2021/06/03 20:47:11;;;;;;;14.15;4.70;;;;;;;;;;5093976;28;20013;-64
2021/06/03 20:49:39;;;;;;;11.38;4.68;;;;;;;;;;5094389;28;20020;-64
2021/06/03 20:52:06;;;;;;;18.67;4.88;;;;;;;;;;5093667;28;20465;-64
2021/06/03 20:54:33;;;;;;;11.32;4.20;;;;;;;;;;5093896;28;20059;-64
2021/06/03 20:57:00;;;;;;;10.73;4.80;;;;;;;;;;5094011;28;20032;-64
2021/06/03 20:59:25;;;;;;;8.82;4.78;;;;;;;;;;5093850;28;20016;-64
2021/06/03 21:01:51;;;;;;;9.65;4.93;;;;;;;;;;5094252;28;20020;-64
2021/06/03 21:04:17;;;;;;;6.55;3.85;;;;;;;;;;5094138;28;20020;-64
2021/06/03 21:06:44;;;;;;;14.48;4.93;;;;;;;;;;5094477;28;20012;-64
2021/06/03 21:09:10;;;;;;;10.23;4.45;;;;;;;;;;5093716;28;20099;-63
2021/06/03 21:11:36;;;;;;;7.68;4.63;;;;;;;;;;5094210;28;20433;-64
2021/06/03 21:14:04;;;;;;;15.48;5.25;;;;;;;;;;5093892;28;20381;-64
2021/06/03 21:16:31;;;;;;;13.65;5.15;;;;;;;;;;5093920;28;20016;-64
2021/06/03 21:18:57;;;;;;;9.20;4.80;;;;;;;;;;5094434;28;20015;-64
2021/06/03 21:21:23;;;;;;;7.28;4.57;;;;;;;;;;5092803;28;20023;-64
2021/06/03 21:23:50;;;;;;;6.40;4.32;;;;;;;;;;5093795;28;20024;-64